sensor_id;sensor_type;location;lat;lon;timestamp;pressure;altitude;pressure_sealevel;temperature;humidity
77706;BME280;66874;45.274;5.880;2023-04-03T02:01:06;99109.13;;;8.06;79.47
77706;BME280;66874;45.274;5.880;2023-04-03T02:03:31;99109.16;;;8.04;79.60
77706;BME280;66874;45.274;5.880;2023-04-03T02:05:57;99108.28;;;8.02;79.74
77706;BME280;66874;45.274;5.880;2023-04-03T02:08:22;99114.41;;;8.01;79.78
77706;BME280;66874;45.274;5.880;2023-04-03T02:10:49;99108.28;;;8.02;79.86
77706;BME280;66874;45.274;5.880;2023-04-03T02:13:15;99110.94;;;8.01;79.76
77706;BME280;66874;45.274;5.880;2023-04-03T02:15:41;99099.63;;;8.02;80.02
77706;BME280;66874;45.274;5.880;2023-04-03T02:18:07;99104.84;;;8.03;80.05
77706;BME280;66874;45.274;5.880;2023-04-03T02:20:32;99104.84;;;8.03;80.08
77706;BME280;66874;45.274;5.880;2023-04-03T02:22:58;99110.84;;;8.07;79.93
77706;BME280;66874;45.274;5.880;2023-04-03T02:25:24;99109.13;;;8.09;79.99
77706;BME280;66874;45.274;5.880;2023-04-03T02:27:49;99097.84;;;8.08;79.93
77706;BME280;66874;45.274;5.880;2023-04-03T05:30:55;99078.06;;;7.85;80.11
77706;BME280;66874;45.274;5.880;2023-04-03T05:33:21;99079.81;;;7.84;80.34
77706;BME280;66874;45.274;5.880;2023-04-03T05:35:46;99085.03;;;7.82;80.17
77706;BME280;66874;45.274;5.880;2023-04-03T05:38:11;99083.31;;;7.78;80.15
77706;BME280;66874;45.274;5.880;2023-04-03T05:40:37;99074.66;;;7.75;80.42
77706;BME280;66874;45.274;5.880;2023-04-03T05:43:02;99072.06;;;7.76;80.49
77706;BME280;66874;45.274;5.880;2023-04-03T05:45:28;99076.38;;;7.79;80.43
77706;BME280;66874;45.274;5.880;2023-04-03T05:47:53;99068.56;;;7.79;80.52
77706;BME280;66874;45.274;5.880;2023-04-03T05:50:18;99066.81;;;7.81;80.59
77706;BME280;66874;45.274;5.880;2023-04-03T05:52:45;99075.47;;;7.85;80.62
77706;BME280;66874;45.274;5.880;2023-04-03T05:55:12;99068.44;;;7.91;80.67
77706;BME280;66874;45.274;5.880;2023-04-03T05:57:38;99062.28;;;8.01;80.70
77706;BME280;66874;45.274;5.880;2023-04-03T06:00:11;99071.78;;;8.08;80.62
77706;BME280;66874;45.274;5.880;2023-04-03T06:02:37;99070.00;;;8.11;80.50
77706;BME280;66874;45.274;5.880;2023-04-03T06:05:03;99061.28;;;8.19;80.58
77706;BME280;66874;45.274;5.880;2023-04-03T06:07:29;99067.31;;;8.23;80.27
77706;BME280;66874;45.274;5.880;2023-04-03T06:09:56;99070.75;;;8.25;80.27
77706;BME280;66874;45.274;5.880;2023-04-03T06:12:22;99071.59;;;8.28;80.36
77706;BME280;66874;45.274;5.880;2023-04-03T06:14:48;99075.91;;;8.31;80.08
77706;BME280;66874;45.274;5.880;2023-04-03T06:17:15;99068.94;;;8.35;79.98
77706;BME280;66874;45.274;5.880;2023-04-03T06:19:41;99079.31;;;8.41;80.03
77706;BME280;66874;45.274;5.880;2023-04-03T06:22:06;99067.16;;;8.41;79.97
77706;BME280;66874;45.274;5.880;2023-04-03T06:24:32;99066.25;;;8.44;79.72
77706;BME280;66874;45.274;5.880;2023-04-03T06:26:58;99068.88;;;8.44;79.71
77706;BME280;66874;45.274;5.880;2023-04-03T06:29:24;99070.56;;;8.48;79.67
77706;BME280;66874;45.274;5.880;2023-04-03T06:31:50;99072.28;;;8.49;79.61
77706;BME280;66874;45.274;5.880;2023-04-03T06:34:16;99074.88;;;8.49;79.67
77706;BME280;66874;45.274;5.880;2023-04-03T06:36:42;99074.88;;;8.49;79.45
77706;BME280;66874;45.274;5.880;2023-04-03T06:39:10;99074.84;;;8.52;79.58
77706;BME280;66874;45.274;5.880;2023-04-03T06:41:38;99073.97;;;8.54;79.51
77706;BME280;66874;45.274;5.880;2023-04-03T06:44:03;99075.66;;;8.57;79.42
77706;BME280;66874;45.274;5.880;2023-04-03T06:46:29;99078.28;;;8.59;79.12
77706;BME280;66874;45.274;5.880;2023-04-03T06:48:54;99078.19;;;8.65;79.29
77706;BME280;66874;45.274;5.880;2023-04-03T06:51:27;99078.97;;;8.71;79.30
77706;BME280;66874;45.274;5.880;2023-04-03T06:53:55;99083.25;;;8.78;79.00
77706;BME280;66874;45.274;5.880;2023-04-03T06:56:22;99085.75;;;8.88;79.19
77706;BME280;66874;45.274;5.880;2023-04-03T06:58:47;99085.69;;;8.94;78.89
77706;BME280;66874;45.274;5.880;2023-04-03T07:01:15;99089.09;;;9.00;78.91
77706;BME280;66874;45.274;5.880;2023-04-03T07:03:41;99081.16;;;9.08;78.49
77706;BME280;66874;45.274;5.880;2023-04-03T07:06:09;99077.56;;;9.17;78.49
77706;BME280;66874;45.274;5.880;2023-04-03T07:08:36;99074.88;;;9.23;78.34
77706;BME280;66874;45.274;5.880;2023-04-03T07:11:01;99072.16;;;9.31;78.29
77706;BME280;66874;45.274;5.880;2023-04-03T07:13:27;99073.78;;;9.39;78.19
77706;BME280;66874;45.274;5.880;2023-04-03T07:15:52;99075.41;;;9.45;77.95
77706;BME280;66874;45.274;5.880;2023-04-03T07:18:19;99073.69;;;9.44;77.92
77706;BME280;66874;45.274;5.880;2023-04-03T07:20:44;99085.03;;;9.41;77.47
77706;BME280;66874;45.274;5.880;2023-04-03T07:23:10;99081.50;;;9.47;77.28
77706;BME280;66874;45.274;5.880;2023-04-03T07:25:36;99082.31;;;9.49;77.45
77706;BME280;66874;45.274;5.880;2023-04-03T07:28:01;99083.09;;;9.56;77.18
77706;BME280;66874;45.274;5.880;2023-04-03T07:30:27;99090.88;;;9.60;77.07
77706;BME280;66874;45.274;5.880;2023-04-03T07:32:52;99082.09;;;9.64;76.90
77706;BME280;66874;45.274;5.880;2023-04-03T07:35:18;99089.81;;;9.72;76.86
77706;BME280;66874;45.274;5.880;2023-04-03T07:37:44;99093.25;;;9.77;76.91
77706;BME280;66874;45.274;5.880;2023-04-03T07:40:09;99095.78;;;9.82;76.86
77706;BME280;66874;45.274;5.880;2023-04-03T07:42:35;99085.25;;;9.86;76.56
77706;BME280;66874;45.274;5.880;2023-04-03T07:45:02;99087.84;;;9.86;76.44
77706;BME280;66874;45.274;5.880;2023-04-03T07:47:28;99086.03;;;9.91;76.57
77706;BME280;66874;45.274;5.880;2023-04-03T07:49:53;99085.97;;;9.96;76.34
77706;BME280;66874;45.274;5.880;2023-04-03T07:52:18;99085.16;;;9.92;76.06
77706;BME280;66874;45.274;5.880;2023-04-03T07:54:44;99083.31;;;9.97;76.24
77706;BME280;66874;45.274;5.880;2023-04-03T07:57:09;99074.50;;;10.05;76.07
77706;BME280;66874;45.274;5.880;2023-04-03T07:59:35;99082.31;;;10.06;75.86
77706;BME280;66874;45.274;5.880;2023-04-03T08:02:00;99073.47;;;10.13;75.91
77706;BME280;66874;45.274;5.880;2023-04-03T08:04:26;99071.56;;;10.23;75.85
77706;BME280;66874;45.274;5.880;2023-04-03T08:06:52;99074.09;;;10.31;75.43
77706;BME280;66874;45.274;5.880;2023-04-03T08:09:18;99074.84;;;10.36;75.36
77706;BME280;66874;45.274;5.880;2023-04-03T08:11:45;99079.09;;;10.41;75.23
77706;BME280;66874;45.274;5.880;2023-04-03T08:14:11;99062.44;;;10.47;75.20
77706;BME280;66874;45.274;5.880;2023-04-03T08:16:41;99073.63;;;10.55;75.14
77706;BME280;66874;45.274;5.880;2023-04-03T08:19:07;99075.28;;;10.59;75.22
77706;BME280;66874;45.274;5.880;2023-04-03T08:21:33;99074.31;;;10.65;75.09
77706;BME280;66874;45.274;5.880;2023-04-03T08:23:58;99076.72;;;10.75;75.03
77706;BME280;66874;45.274;5.880;2023-04-03T08:26:23;99073.97;;;10.82;74.72
77706;BME280;66874;45.274;5.880;2023-04-03T08:28:49;99072.16;;;10.85;74.49
77706;BME280;66874;45.274;5.880;2023-04-03T08:31:17;99075.59;;;10.89;74.56
77706;BME280;66874;45.274;5.880;2023-04-03T08:33:44;99077.16;;;10.97;74.40
77706;BME280;66874;45.274;5.880;2023-04-03T08:36:21;99081.31;;;11.08;74.16
77706;BME280;66874;45.274;5.880;2023-04-03T08:38:48;99076.72;;;11.17;74.26
77706;BME280;66874;45.274;5.880;2023-04-03T08:41:26;99076.56;;;11.25;74.09
77706;BME280;66874;45.274;5.880;2023-04-03T08:46:56;99072.03;;;11.70;73.40
77706;BME280;66874;45.274;5.880;2023-04-03T08:49:31;99067.19;;;11.91;72.66
77706;BME280;66874;45.274;5.880;2023-04-03T08:51:59;99060.59;;;12.10;71.81
77706;BME280;66874;45.274;5.880;2023-04-03T08:54:32;99053.69;;;12.42;71.63
77706;BME280;66874;45.274;5.880;2023-04-03T08:57:02;99051.09;;;12.71;70.66
77706;BME280;66874;45.274;5.880;2023-04-03T08:59:29;99046.91;;;12.64;70.12
77706;BME280;66874;45.274;5.880;2023-04-03T09:01:58;99044.97;;;12.73;69.98
77706;BME280;66874;45.274;5.880;2023-04-03T09:04:27;99042.75;;;12.88;69.21
77706;BME280;66874;45.274;5.880;2023-04-03T09:07:06;99039.75;;;13.32;68.32
77706;BME280;66874;45.274;5.880;2023-04-03T09:09:41;99025.69;;;13.61;67.54
77706;BME280;66874;45.274;5.880;2023-04-03T09:12:31;99022.56;;;13.76;67.00
77706;BME280;66874;45.274;5.880;2023-04-03T09:15:17;99013.44;;;13.86;66.38
77706;BME280;66874;45.274;5.880;2023-04-03T09:17:59;99008.13;;;14.39;65.80
77706;BME280;66874;45.274;5.880;2023-04-03T09:23:24;99004.69;;;15.09;63.92
77706;BME280;66874;45.274;5.880;2023-04-03T09:26:00;99000.22;;;15.11;62.77
77706;BME280;66874;45.274;5.880;2023-04-03T09:28:27;98996.56;;;15.16;62.56
77706;BME280;66874;45.274;5.880;2023-04-03T09:30:55;98998.41;;;14.90;62.30
77706;BME280;66874;45.274;5.880;2023-04-03T09:33:21;98997.81;;;14.58;62.64
77706;BME280;66874;45.274;5.880;2023-04-03T09:35:48;98995.31;;;14.30;63.20
77706;BME280;66874;45.274;5.880;2023-04-03T09:38:16;99000.38;;;14.10;63.28
77706;BME280;66874;45.274;5.880;2023-04-03T09:40:45;98999.38;;;13.87;63.44
77706;BME280;66874;45.274;5.880;2023-04-03T09:45:44;98988.84;;;13.89;63.72
77706;BME280;66874;45.274;5.880;2023-04-03T09:53:37;98999.53;;;13.00;63.94
77706;BME280;66874;45.274;5.880;2023-04-03T09:58:40;98992.47;;;12.73;64.55
77706;BME280;66874;45.274;5.880;2023-04-03T10:01:30;98992.84;;;12.59;64.48
77706;BME280;66874;45.274;5.880;2023-04-03T10:04:05;98982.56;;;12.51;64.69
77706;BME280;66874;45.274;5.880;2023-04-03T10:06:33;98986.47;;;12.67;64.63
77706;BME280;66874;45.274;5.880;2023-04-03T10:09:10;98989.72;;;12.76;64.51
77706;BME280;66874;45.274;5.880;2023-04-03T10:11:57;98981.75;;;12.80;64.25
77706;BME280;66874;45.274;5.880;2023-04-03T10:14:24;98976.34;;;12.85;64.13
77706;BME280;66874;45.274;5.880;2023-04-03T10:20:27;98963.97;;;13.46;62.44
77706;BME280;66874;45.274;5.880;2023-04-03T10:25:46;98964.38;;;13.34;61.54
77706;BME280;66874;45.274;5.880;2023-04-03T10:28:24;98960.44;;;13.47;61.63
77706;BME280;66874;45.274;5.880;2023-04-03T10:31:15;98958.06;;;13.66;60.92
77706;BME280;66874;45.274;5.880;2023-04-03T10:34:04;98954.75;;;14.36;60.27
77706;BME280;66874;45.274;5.880;2023-04-03T10:42:42;98925.56;;;16.36;55.45
77706;BME280;66874;45.274;5.880;2023-04-03T10:45:26;98926.84;;;15.87;55.54
77706;BME280;66874;45.274;5.880;2023-04-03T10:48:08;98932.72;;;16.14;55.83
77706;BME280;66874;45.274;5.880;2023-04-03T10:53:14;98936.09;;;15.97;54.98
77706;BME280;66874;45.274;5.880;2023-04-03T10:55:58;98929.06;;;15.77;55.10
77706;BME280;66874;45.274;5.880;2023-04-03T10:58:32;98920.81;;;15.85;55.57
77706;BME280;66874;45.274;5.880;2023-04-03T11:01:06;98911.75;;;15.91;55.44
77706;BME280;66874;45.274;5.880;2023-04-03T11:03:36;98917.31;;;15.62;55.56
77706;BME280;66874;45.274;5.880;2023-04-03T11:06:08;98922.03;;;15.34;55.39
77706;BME280;66874;45.274;5.880;2023-04-03T11:08:44;98907.09;;;15.12;55.79
77706;BME280;66874;45.274;5.880;2023-04-03T11:11:13;98902.94;;;15.07;55.66
77706;BME280;66874;45.274;5.880;2023-04-03T11:13:49;98910.44;;;14.94;55.45
77706;BME280;66874;45.274;5.880;2023-04-03T11:16:23;98905.47;;;14.86;55.49
77706;BME280;66874;45.274;5.880;2023-04-03T11:18:56;98903.66;;;14.88;55.51
77706;BME280;66874;45.274;5.880;2023-04-03T11:21:31;98901.56;;;14.97;54.78
77706;BME280;66874;45.274;5.880;2023-04-03T11:24:02;98894.84;;;15.11;54.59
77706;BME280;66874;45.274;5.880;2023-04-03T11:26:36;98882.31;;;15.17;54.13
77706;BME280;66874;45.274;5.880;2023-04-03T11:29:14;98880.94;;;15.30;54.15
77706;BME280;66874;45.274;5.880;2023-04-03T11:31:57;98874.47;;;16.19;53.74
77706;BME280;66874;45.274;5.880;2023-04-03T11:34:36;98874.91;;;17.04;51.70
77706;BME280;66874;45.274;5.880;2023-04-03T11:37:24;98866.63;;;17.12;50.43
77706;BME280;66874;45.274;5.880;2023-04-03T11:39:57;98868.41;;;17.28;49.90
77706;BME280;66874;45.274;5.880;2023-04-03T11:47:47;98851.19;;;17.39;48.85
77706;BME280;66874;45.274;5.880;2023-04-03T12:05:57;98827.19;;;18.90;46.01
77706;BME280;66874;45.274;5.880;2023-04-03T12:22:04;98818.44;;;18.09;46.30
77706;BME280;66874;45.274;5.880;2023-04-03T12:37:56;98789.63;;;20.72;42.80
77706;BME280;66874;45.274;5.880;2023-04-03T12:43:47;98775.53;;;20.85;41.51
77706;BME280;66874;45.274;5.880;2023-04-03T12:46:18;98776.13;;;20.76;41.19
77706;BME280;66874;45.274;5.880;2023-04-03T12:51:13;98778.38;;;21.21;40.70
77706;BME280;66874;45.274;5.880;2023-04-03T12:53:40;98767.28;;;21.42;41.29
77706;BME280;66874;45.274;5.880;2023-04-03T12:56:30;98769.84;;;21.69;40.81
77706;BME280;66874;45.274;5.880;2023-04-03T12:59:14;98764.97;;;21.76;40.12
77706;BME280;66874;45.274;5.880;2023-04-03T13:01:41;98766.22;;;21.83;39.57
77706;BME280;66874;45.274;5.880;2023-04-03T13:04:11;98771.53;;;21.96;39.21
77706;BME280;66874;45.274;5.880;2023-04-03T13:06:42;98765.34;;;22.21;39.23
77706;BME280;66874;45.274;5.880;2023-04-03T13:11:47;98757.63;;;22.41;38.08
77706;BME280;66874;45.274;5.880;2023-04-03T13:14:22;98753.78;;;22.70;38.69
77706;BME280;66874;45.274;5.880;2023-04-03T13:17:06;98766.97;;;21.72;37.13
77706;BME280;66874;45.274;5.880;2023-04-03T13:19:35;98758.75;;;21.37;38.43
77706;BME280;66874;45.274;5.880;2023-04-03T13:22:06;98754.63;;;21.58;38.07
77706;BME280;66874;45.274;5.880;2023-04-03T13:24:36;98752.25;;;20.88;37.86
77706;BME280;66874;45.274;5.880;2023-04-03T13:27:03;98759.63;;;20.15;39.18
77706;BME280;66874;45.274;5.880;2023-04-03T13:29:35;98755.31;;;19.55;40.21
77706;BME280;66874;45.274;5.880;2023-04-03T13:32:03;98754.34;;;18.97;40.47
77706;BME280;66874;45.274;5.880;2023-04-03T13:34:40;98759.47;;;19.00;40.95
77706;BME280;66874;45.274;5.880;2023-04-03T13:37:11;98750.56;;;19.01;41.07
77706;BME280;66874;45.274;5.880;2023-04-03T13:39:43;98737.50;;;18.98;41.74
77706;BME280;66874;45.274;5.880;2023-04-03T13:42:22;98737.19;;;19.19;41.46
77706;BME280;66874;45.274;5.880;2023-04-03T13:44:48;98732.16;;;19.73;41.19
77706;BME280;66874;45.274;5.880;2023-04-03T13:47:23;98711.84;;;20.42;39.93
77706;BME280;66874;45.274;5.880;2023-04-03T14:00:54;98717.63;;;21.15;38.62
77706;BME280;66874;45.274;5.880;2023-04-03T14:03:31;98718.09;;;20.55;38.75
77706;BME280;66874;45.274;5.880;2023-04-03T14:05:57;98708.34;;;20.41;38.77
77706;BME280;66874;45.274;5.880;2023-04-03T14:08:23;98705.66;;;20.14;38.96
77706;BME280;66874;45.274;5.880;2023-04-03T14:10:49;98711.56;;;20.46;38.66
77706;BME280;66874;45.274;5.880;2023-04-03T14:13:16;98710.38;;;20.65;38.23
77706;BME280;66874;45.274;5.880;2023-04-03T14:15:43;98707.81;;;20.63;38.14
77706;BME280;66874;45.274;5.880;2023-04-03T14:18:13;98706.72;;;20.12;38.76
77706;BME280;66874;45.274;5.880;2023-04-03T14:20:39;98714.13;;;19.92;39.06
77706;BME280;66874;45.274;5.880;2023-04-03T14:23:05;98695.06;;;20.41;38.60
77706;BME280;66874;45.274;5.880;2023-04-03T14:25:31;98702.31;;;20.79;37.88
77706;BME280;66874;45.274;5.880;2023-04-03T14:27:57;98694.53;;;21.16;37.78
77706;BME280;66874;45.274;5.880;2023-04-03T14:30:29;98699.56;;;21.59;37.11
77706;BME280;66874;45.274;5.880;2023-04-03T14:32:55;98699.28;;;20.98;37.20
77706;BME280;66874;45.274;5.880;2023-04-03T14:35:20;98699.59;;;21.06;37.88
77706;BME280;66874;45.274;5.880;2023-04-03T14:37:50;98705.22;;;20.89;36.97
77706;BME280;66874;45.274;5.880;2023-04-03T14:40:19;98689.53;;;20.44;37.82
77706;BME280;66874;45.274;5.880;2023-04-03T14:42:46;98697.31;;;20.06;38.03
77706;BME280;66874;45.274;5.880;2023-04-03T14:45:14;98685.19;;;20.02;37.81
77706;BME280;66874;45.274;5.880;2023-04-03T14:47:49;98696.75;;;19.44;38.45
77706;BME280;66874;45.274;5.880;2023-04-03T14:50:21;98685.72;;;19.66;38.88
77706;BME280;66874;45.274;5.880;2023-04-03T14:52:49;98690.13;;;19.22;38.87
77706;BME280;66874;45.274;5.880;2023-04-03T14:55:16;98697.22;;;18.62;39.70
77706;BME280;66874;45.274;5.880;2023-04-03T14:57:42;98691.88;;;18.16;40.07
77706;BME280;66874;45.274;5.880;2023-04-03T15:00:13;98701.38;;;17.71;40.38
77706;BME280;66874;45.274;5.880;2023-04-03T15:02:39;98698.13;;;17.32;41.03
77706;BME280;66874;45.274;5.880;2023-04-03T15:05:07;98694.53;;;17.00;41.33
77706;BME280;66874;45.274;5.880;2023-04-03T15:07:59;98694.53;;;16.64;41.82
77706;BME280;66874;45.274;5.880;2023-04-03T15:10:30;98693.25;;;16.36;42.44
77706;BME280;66874;45.274;5.880;2023-04-03T15:12:56;98684.03;;;16.09;42.92
77706;BME280;66874;45.274;5.880;2023-04-03T15:15:23;98697.19;;;15.73;43.54
77706;BME280;66874;45.274;5.880;2023-04-03T15:17:54;98695.22;;;15.57;44.08
77706;BME280;66874;45.274;5.880;2023-04-03T15:20:22;98697.25;;;15.51;44.13
77706;BME280;66874;45.274;5.880;2023-04-03T15:22:49;98701.56;;;15.33;44.42
77706;BME280;66874;45.274;5.880;2023-04-03T15:25:15;98696.63;;;15.25;44.64
77706;BME280;66874;45.274;5.880;2023-04-03T15:27:41;98693.13;;;15.25;44.69
77706;BME280;66874;45.274;5.880;2023-04-03T15:30:13;98696.38;;;15.31;44.40
77706;BME280;66874;45.274;5.880;2023-04-03T15:32:39;98696.97;;;15.18;44.74
77706;BME280;66874;45.274;5.880;2023-04-03T15:35:05;98687.44;;;15.15;44.90
77706;BME280;66874;45.274;5.880;2023-04-03T15:37:30;98691.97;;;15.51;44.93
77706;BME280;66874;45.274;5.880;2023-04-03T15:39:56;98681.81;;;16.19;44.25
77706;BME280;66874;45.274;5.880;2023-04-03T15:42:21;98680.91;;;16.20;43.38
77706;BME280;66874;45.274;5.880;2023-04-03T15:44:47;98687.03;;;15.82;43.68
77706;BME280;66874;45.274;5.880;2023-04-03T15:47:12;98685.28;;;15.62;43.98
77706;BME280;66874;45.274;5.880;2023-04-03T15:49:38;98689.81;;;15.40;44.38
77706;BME280;66874;45.274;5.880;2023-04-03T15:52:03;98684.31;;;15.05;44.42
77706;BME280;66874;45.274;5.880;2023-04-03T15:54:29;98686.91;;;14.86;44.77
77706;BME280;66874;45.274;5.880;2023-04-03T15:56:55;98680.97;;;14.81;45.14
77706;BME280;66874;45.274;5.880;2023-04-03T15:59:21;98683.41;;;14.65;45.27
77706;BME280;66874;45.274;5.880;2023-04-03T16:01:47;98670.69;;;14.75;45.41
77706;BME280;66874;45.274;5.880;2023-04-03T16:04:13;98675.69;;;15.02;45.28
77706;BME280;66874;45.274;5.880;2023-04-03T16:06:39;98671.84;;;15.29;45.07
77706;BME280;66874;45.274;5.880;2023-04-03T16:09:06;98660.97;;;15.56;44.75
77706;BME280;66874;45.274;5.880;2023-04-03T16:11:31;98657.03;;;16.04;44.01
77706;BME280;66874;45.274;5.880;2023-04-03T16:13:57;98663.41;;;16.53;43.24
77706;BME280;66874;45.274;5.880;2023-04-03T16:16:23;98658.16;;;16.88;42.60
77706;BME280;66874;45.274;5.880;2023-04-03T16:18:51;98655.19;;;17.12;42.62
77706;BME280;66874;45.274;5.880;2023-04-03T16:21:17;98653.63;;;17.41;42.11
77706;BME280;66874;45.274;5.880;2023-04-03T16:23:43;98654.03;;;17.33;41.80
77706;BME280;66874;45.274;5.880;2023-04-03T16:26:09;98656.44;;;17.04;42.03
77706;BME280;66874;45.274;5.880;2023-04-03T16:28:35;98662.00;;;16.64;42.21
77706;BME280;66874;45.274;5.880;2023-04-03T16:31:01;98664.34;;;16.70;41.71
77706;BME280;66874;45.274;5.880;2023-04-03T16:33:27;98665.81;;;16.58;41.70
77706;BME280;66874;45.274;5.880;2023-04-03T16:35:53;98664.00;;;16.77;41.49
77706;BME280;66874;45.274;5.880;2023-04-03T16:38:19;98665.06;;;16.73;41.09
77706;BME280;66874;45.274;5.880;2023-04-03T16:40:45;98668.25;;;16.26;41.43
77706;BME280;66874;45.274;5.880;2023-04-03T16:43:11;98672.25;;;15.59;42.04
77706;BME280;66874;45.274;5.880;2023-04-03T16:45:37;98677.88;;;15.12;43.04
77706;BME280;66874;45.274;5.880;2023-04-03T16:48:02;98678.03;;;14.89;43.04
77706;BME280;66874;45.274;5.880;2023-04-03T16:50:28;98674.00;;;14.80;43.66
77706;BME280;66874;45.274;5.880;2023-04-03T16:52:53;98683.16;;;14.92;43.86
77706;BME280;66874;45.274;5.880;2023-04-03T16:55:19;98685.63;;;14.75;43.86
77706;BME280;66874;45.274;5.880;2023-04-03T16:57:45;98683.03;;;14.53;44.23
77706;BME280;66874;45.274;5.880;2023-04-03T17:00:11;98690.09;;;14.30;44.60
77706;BME280;66874;45.274;5.880;2023-04-03T17:02:38;98695.53;;;14.04;44.65
77706;BME280;66874;45.274;5.880;2023-04-03T17:05:04;98697.00;;;13.87;45.07
77706;BME280;66874;45.274;5.880;2023-04-03T17:07:29;98695.78;;;13.74;45.35
77706;BME280;66874;45.274;5.880;2023-04-03T17:09:55;98703.31;;;13.60;45.20
77706;BME280;66874;45.274;5.880;2023-04-03T17:12:21;98697.72;;;13.46;45.57
77706;BME280;66874;45.274;5.880;2023-04-03T17:14:46;98704.41;;;13.31;45.96
77706;BME280;66874;45.274;5.880;2023-04-03T17:17:13;98711.69;;;13.21;45.97
77706;BME280;66874;45.274;5.880;2023-04-03T17:19:40;98707.53;;;13.15;46.26
77706;BME280;66874;45.274;5.880;2023-04-03T17:22:07;98713.53;;;13.19;46.27
77706;BME280;66874;45.274;5.880;2023-04-03T17:24:33;98712.03;;;13.12;46.38
77706;BME280;66874;45.274;5.880;2023-04-03T17:26:59;98712.50;;;12.98;46.52
77706;BME280;66874;45.274;5.880;2023-04-03T17:29:24;98718.00;;;12.90;46.65
77706;BME280;66874;45.274;5.880;2023-04-03T17:31:50;98724.13;;;12.91;46.67
77706;BME280;66874;45.274;5.880;2023-04-03T17:34:15;98716.63;;;12.80;46.62
77706;BME280;66874;45.274;5.880;2023-04-03T17:36:41;98721.41;;;12.67;47.01
77706;BME280;66874;45.274;5.880;2023-04-03T17:39:07;98713.84;;;12.58;46.94
77706;BME280;66874;45.274;5.880;2023-04-03T17:41:32;98725.75;;;12.42;47.01
77706;BME280;66874;45.274;5.880;2023-04-03T17:43:58;98723.66;;;12.25;47.07
77706;BME280;66874;45.274;5.880;2023-04-03T17:46:24;98730.06;;;12.16;46.96
77706;BME280;66874;45.274;5.880;2023-04-03T17:48:50;98730.28;;;12.09;47.06
77706;BME280;66874;45.274;5.880;2023-04-03T17:51:19;98731.38;;;12.02;47.25
77706;BME280;66874;45.274;5.880;2023-04-03T17:53:45;98728.94;;;11.95;47.44
77706;BME280;66874;45.274;5.880;2023-04-03T17:56:19;98739.47;;;11.94;47.87
77706;BME280;66874;45.274;5.880;2023-04-03T17:58:47;98734.44;;;11.88;47.57
77706;BME280;66874;45.274;5.880;2023-04-03T18:01:16;98733.09;;;11.71;47.53
77706;BME280;66874;45.274;5.880;2023-04-03T18:03:43;98729.94;;;11.60;47.63
77706;BME280;66874;45.274;5.880;2023-04-03T18:06:11;98728.53;;;11.48;47.79
77706;BME280;66874;45.274;5.880;2023-04-03T18:08:41;98729.00;;;11.32;47.33
77706;BME280;66874;45.274;5.880;2023-04-03T18:11:09;98724.06;;;11.21;47.56
77706;BME280;66874;45.274;5.880;2023-04-03T18:13:34;98733.09;;;11.09;47.35
77706;BME280;66874;45.274;5.880;2023-04-03T18:16:03;98733.38;;;10.98;47.38
77706;BME280;66874;45.274;5.880;2023-04-03T18:18:29;98741.41;;;10.91;47.39
77706;BME280;66874;45.274;5.880;2023-04-03T18:20:54;98739.00;;;10.83;47.22
77706;BME280;66874;45.274;5.880;2023-04-03T18:23:20;98741.06;;;10.70;47.33
77706;BME280;66874;45.274;5.880;2023-04-03T18:25:46;98743.81;;;10.64;47.29
77706;BME280;66874;45.274;5.880;2023-04-03T18:28:11;98742.25;;;10.59;47.18
77706;BME280;66874;45.274;5.880;2023-04-03T18:30:37;98754.66;;;10.50;47.50
77706;BME280;66874;45.274;5.880;2023-04-03T18:33:02;98753.97;;;10.41;47.54
77706;BME280;66874;45.274;5.880;2023-04-03T18:35:28;98749.84;;;10.32;47.59
77706;BME280;66874;45.274;5.880;2023-04-03T18:37:53;98752.59;;;10.24;47.88
77706;BME280;66874;45.274;5.880;2023-04-03T18:40:19;98757.13;;;10.16;47.74
77706;BME280;66874;45.274;5.880;2023-04-03T18:42:44;98766.91;;;10.07;47.89
77706;BME280;66874;45.274;5.880;2023-04-03T18:45:11;98761.97;;;9.96;48.16
77706;BME280;66874;45.274;5.880;2023-04-03T18:47:37;98770.75;;;9.90;48.42
77706;BME280;66874;45.274;5.880;2023-04-03T18:50:04;98768.22;;;9.87;48.69
77706;BME280;66874;45.274;5.880;2023-04-03T18:52:31;98769.22;;;9.82;48.61
77706;BME280;66874;45.274;5.880;2023-04-03T18:54:56;98766.72;;;9.75;48.75
77706;BME280;66874;45.274;5.880;2023-04-03T18:57:22;98769.47;;;9.69;49.06
77706;BME280;66874;45.274;5.880;2023-04-03T18:59:47;98770.34;;;9.68;49.11
77706;BME280;66874;45.274;5.880;2023-04-03T19:02:13;98772.13;;;9.66;49.02
77706;BME280;66874;45.274;5.880;2023-04-03T19:04:39;98776.59;;;9.61;49.51
77706;BME280;66874;45.274;5.880;2023-04-03T19:07:07;98781.13;;;9.51;49.62
77706;BME280;66874;45.274;5.880;2023-04-03T19:09:33;98784.75;;;9.44;49.56
77706;BME280;66874;45.274;5.880;2023-04-03T19:11:58;98777.06;;;9.38;49.78
77706;BME280;66874;45.274;5.880;2023-04-03T19:14:26;98784.19;;;9.28;49.75
77706;BME280;66874;45.274;5.880;2023-04-03T19:16:51;98784.31;;;9.21;49.83
77706;BME280;66874;45.274;5.880;2023-04-03T19:19:17;98779.22;;;9.15;50.03
77706;BME280;66874;45.274;5.880;2023-04-03T19:21:42;98788.91;;;9.08;50.44
77706;BME280;66874;45.274;5.880;2023-04-03T19:24:10;98787.25;;;9.04;50.63
77706;BME280;66874;45.274;5.880;2023-04-03T19:26:35;98791.66;;;9.00;50.43
77706;BME280;66874;45.274;5.880;2023-04-03T19:29:01;98793.44;;;8.97;50.61
77706;BME280;66874;45.274;5.880;2023-04-03T19:31:27;98789.19;;;8.91;50.92
77706;BME280;66874;45.274;5.880;2023-04-03T19:33:53;98791.06;;;8.83;51.15
77706;BME280;66874;45.274;5.880;2023-04-03T19:36:19;98792.88;;;8.78;51.12
77706;BME280;66874;45.274;5.880;2023-04-03T19:38:44;98803.41;;;8.73;51.14
77706;BME280;66874;45.274;5.880;2023-04-03T19:41:12;98805.16;;;8.71;51.47
77706;BME280;66874;45.274;5.880;2023-04-03T19:43:39;98805.22;;;8.67;51.52
77706;BME280;66874;45.274;5.880;2023-04-03T19:46:05;98809.66;;;8.62;51.85
77706;BME280;66874;45.274;5.880;2023-04-03T19:48:31;98801.91;;;8.57;51.85